KADM/ADM METAR and TAF weather

Enter ICAO airport designator
Station Type Date Time Source
KADM METAR 2019/08/24 19:55 UTC NOAA

KADM 241955Z 00000KT 10SM SCT027 SCT048 32/24 A2991


Station Type Date Time Source
KADM Decoded METAR 2019/08/24 19:55 UTC NOAA

Station name not available
Aug 24, 2019 - 03:55 PM EDT / 2019.08.24 1955 UTC
Wind: Calm:0
Visibility: 10 mile(s):0
Sky conditions: partly cloudy
Temperature: 89 F (32 C)
Heat index: 98.4 F (36.9 C):1
Dew Point: 75 F (24 C)
Relative Humidity: 62%
Pressure (altimeter): 29.91 in. Hg (1012 hPa)
ob: KADM 241955Z 00000KT 10SM SCT027 SCT048 32/24 A2991
cycle: 20

Station Type Date Time Source
KADM TAF UTC NOAA

Error!

Example: see airport list